Time;durP1;ratioP1;P1;durP2;ratioP2;P2;SDS_P1;SDS_P2;PMS_P1;PMS_P2;Temp;Humidity;BMP_temperature;BMP_pressure;BME280_temperature;BME280_humidity;BME280_pressure;Samples;Min_cycle;Max_cycle;Signal;HPM_P1;HPM_P2
2022/12/15 00:38:56;;;;;;;16.50;13.80;;;;;19.20;99504.00;;;;2070781;28;20221;-54
2022/12/15 00:40:03;;;;;;;15.53;13.60;;;;;19.20;99503.00;;;;2070774;28;20242;-54
2022/12/15 00:41:03;;;;;;;15.63;13.90;;;;;19.20;99477.00;;;;2070800;28;20255;-54
2022/12/15 00:42:04;;;;;;;15.73;13.73;;;;;19.20;99499.00;;;;2052995;28;20620;-58
2022/12/15 00:43:04;;;;;;;14.80;13.20;;;;;19.20;99497.00;;;;2053566;28;20605;-54
2022/12/15 00:44:04;;;;;;;15.30;13.60;;;;;19.20;99512.00;;;;2070457;28;20264;-55
2022/12/15 00:45:05;;;;;;;16.03;14.33;;;;;19.20;99501.00;;;;2070683;28;20222;-55
2022/12/15 00:47:24;;;;;;;15.45;13.52;;;;;19.20;99508.00;;;;2062057;28;20218;-54
2022/12/15 00:48:24;;;;;;;15.43;12.60;;;;;19.30;99500.00;;;;2064155;28;20226;-55
2022/12/15 00:50:51;;;;;;;17.13;12.85;;;;;19.30;99499.00;;;;2070481;28;20210;-54
2022/12/15 01:20:58;;;;;;;13.95;11.07;;;;;18.90;99504.00;;;;2069029;28;20222;-53
2022/12/15 01:21:59;;;;;;;13.15;11.75;;;;;18.90;99511.00;;;;2069537;28;20301;-54
2022/12/15 01:22:59;;;;;;;12.90;11.47;;;;;18.90;99515.00;;;;2070635;28;20226;-54
2022/12/15 01:23:59;;;;;;;12.63;11.10;;;;;18.90;99506.00;;;;2070395;28;20240;-54
2022/12/15 01:24:59;;;;;;;15.33;11.60;;;;;18.90;99505.00;;;;2070479;28;20218;-54
2022/12/15 01:26:00;;;;;;;13.10;11.20;;;;;18.90;99517.00;;;;2062287;28;20214;-53
2022/12/15 01:27:00;;;;;;;12.20;10.57;;;;;18.90;99509.00;;;;2062434;28;20297;-54
2022/12/15 01:28:00;;;;;;;13.50;12.10;;;;;18.90;99524.00;;;;2069077;28;20297;-54
2022/12/15 01:29:01;;;;;;;11.30;10.20;;;;;18.90;99512.00;;;;2069465;28;20214;-54
2022/12/15 01:30:01;;;;;;;11.80;10.30;;;;;18.90;99516.00;;;;2070933;28;20211;-54
2022/12/15 01:31:08;;;;;;;12.93;10.90;;;;;18.90;99511.00;;;;2070329;28;20241;-54
2022/12/15 01:32:09;;;;;;;12.95;11.48;;;;;18.90;99520.00;;;;2060615;28;20249;-54
2022/12/15 01:33:09;;;;;;;13.40;12.00;;;;;18.90;99513.00;;;;2061614;28;20507;-54
2022/12/15 01:34:09;;;;;;;13.10;11.80;;;;;18.80;99513.00;;;;2070272;28;20218;-55
2022/12/15 01:35:10;;;;;;;12.73;11.43;;;;;18.80;99501.00;;;;2070593;28;20269;-54
2022/12/15 01:36:10;;;;;;;12.40;11.00;;;;;18.90;99512.00;;;;2061589;28;20219;-54
2022/12/15 01:37:10;;;;;;;11.73;10.53;;;;;18.90;99506.00;;;;2053613;28;20216;-54
2022/12/15 01:38:11;;;;;;;12.93;10.90;;;;;18.80;99510.00;;;;2061850;28;20215;-54
2022/12/15 01:39:11;;;;;;;11.73;10.63;;;;;18.80;99512.00;;;;2061914;28;20215;-55
2022/12/15 01:41:35;;;;;;;12.10;10.85;;;;;18.80;99516.00;;;;2064381;28;20210;-54
2022/12/15 01:42:35;;;;;;;11.03;10.00;;;;;18.80;99519.00;;;;2061413;28;20211;-54
2022/12/15 01:43:37;;;;;;;12.03;10.83;;;;;18.80;99519.00;;;;2063028;28;20229;-54
2022/12/15 01:44:37;;;;;;;11.07;9.70;;;;;18.80;99526.00;;;;2065932;28;20584;-54
2022/12/15 01:45:44;;;;;;;10.40;9.40;;;;;18.80;99521.00;;;;2068203;28;20219;-54
2022/12/15 01:46:44;;;;;;;12.30;11.00;;;;;18.80;99504.00;;;;2066396;28;20225;-55
2022/12/15 01:47:44;;;;;;;12.13;10.53;;;;;18.80;99517.00;;;;2054807;28;20779;-56
2022/12/15 01:48:53;;;;;;;13.90;10.40;;;;;18.80;99517.00;;;;2054758;28;20797;-55
2022/12/15 01:49:53;;;;;;;11.55;10.35;;;;;18.80;99532.00;;;;2059847;28;20632;-54
2022/12/15 01:51:00;;;;;;;11.50;10.33;;;;;18.80;99530.00;;;;2055641;28;20267;-54
2022/12/15 01:52:01;;;;;;;12.10;10.43;;;;;18.80;99509.00;;;;2062998;28;20223;-54
2022/12/15 01:53:01;;;;;;;11.47;10.27;;;;;18.80;99537.00;;;;2062993;28;20235;-54
2022/12/15 01:54:07;;;;;;;11.43;10.23;;;;;18.80;99525.00;;;;2054813;28;20458;-55
2022/12/15 01:55:07;;;;;;;11.50;10.40;;;;;18.80;99531.00;;;;2048424;28;20223;-54
2022/12/15 01:56:08;;;;;;;11.43;10.33;;;;;18.80;99522.00;;;;2055159;28;20247;-54
2022/12/15 01:57:12;;;;;;;11.20;10.10;;;;;18.80;99526.00;;;;2048649;28;20216;-55
2022/12/15 01:58:14;;;;;;;13.68;11.77;;;;;18.80;99525.00;;;;2063094;28;20329;-54
2022/12/15 01:59:19;;;;;;;11.65;10.45;;;;;18.70;99528.00;;;;2063181;28;20300;-54
2022/12/15 02:00:19;;;;;;;11.07;9.98;;;;;18.70;99530.00;;;;2046858;28;20703;-55
2022/12/15 02:01:19;;;;;;;11.80;10.43;;;;;18.70;99533.00;;;;2047297;28;20250;-54
2022/12/15 02:02:22;;;;;;;11.77;10.17;;;;;18.70;99538.00;;;;2062942;28;20219;-54
2022/12/15 02:03:22;;;;;;;10.55;9.48;;;;;18.70;99537.00;;;;2050281;28;20228;-54
2022/12/15 02:04:23;;;;;;;11.03;9.73;;;;;18.70;99546.00;;;;2047349;28;20561;-54
2022/12/15 02:05:23;;;;;;;11.17;10.03;;;;;18.80;99545.00;;;;2062538;28;20582;-54
2022/12/15 02:06:23;;;;;;;11.67;10.47;;;;;18.80;99548.00;;;;2055176;28;20602;-54
2022/12/15 02:07:24;;;;;;;11.17;10.07;;;;;18.80;99550.00;;;;2055242;28;20741;-54
2022/12/15 02:08:24;;;;;;;11.37;9.90;;;;;18.70;99535.00;;;;2054864;28;20305;-55
2022/12/15 02:09:24;;;;;;;11.23;10.13;;;;;18.70;99547.00;;;;2066199;28;20268;-54
2022/12/15 02:10:27;;;;;;;11.70;10.47;;;;;18.70;99550.00;;;;2063057;28;20269;-54
2022/12/15 02:11:52;;;;;;;11.18;9.80;;;;;18.70;99546.00;;;;2062904;28;20328;-55
2022/12/15 02:13:10;;;;;;;11.05;9.77;;;;;18.70;99539.00;;;;2066284;28;20588;-54
2022/12/15 02:14:11;;;;;;;11.85;10.30;;;;;18.70;99544.00;;;;2063075;28;20214;-54
2022/12/15 02:15:26;;;;;;;11.10;10.00;;;;;18.70;99547.00;;;;2054841;28;20219;-54
2022/12/15 02:16:33;;;;;;;10.90;9.82;;;;;18.70;99545.00;;;;2054734;28;20320;-54
2022/12/15 02:18:11;;;;;;;11.23;10.13;;;;;18.70;99544.00;;;;2056717;28;20672;-55
2022/12/15 02:19:18;;;;;;;10.70;9.57;;;;;18.70;99546.00;;;;2063194;28;20227;-56
2022/12/15 02:20:32;;;;;;;10.40;9.25;;;;;18.60;99546.00;;;;2054718;28;20223;-57
2022/12/15 02:21:36;;;;;;;11.13;10.02;;;;;18.60;99554.00;;;;2060998;28;20211;-54
2022/12/15 02:23:01;;;;;;;10.40;9.40;;;;;18.60;99560.00;;;;2061864;28;20211;-54
2022/12/15 02:24:20;;;;;;;11.38;9.35;;;;;18.70;99551.00;;;;2066136;28;20214;-54
2022/12/15 02:25:56;;;;;;;11.27;10.18;;;;;18.70;99566.00;;;;2062562;28;20215;-55
2022/12/15 02:27:24;;;;;;;10.15;9.15;;;;;18.70;99557.00;;;;2059937;28;20207;-54
2022/12/15 02:28:38;;;;;;;10.90;9.65;;;;;18.60;99568.00;;;;2069458;28;20686;-54
2022/12/15 02:30:16;;;;;;;10.90;9.90;;;;;18.60;99562.00;;;;2062371;28;20294;-54
2022/12/15 02:31:49;;;;;;;9.57;8.68;;;;;18.60;99563.00;;;;2068105;28;20233;-54
2022/12/15 02:33:19;;;;;;;12.85;9.77;;;;;18.60;99568.00;;;;2058931;28;20222;-54
2022/12/15 02:34:43;;;;;;;10.55;9.50;;;;;18.60;99582.00;;;;2058993;28;20242;-54
2022/12/15 02:36:14;;;;;;;10.50;9.50;;;;;18.60;99567.00;;;;2068206;28;20560;-54
2022/12/15 02:37:23;;;;;;;10.80;9.70;;;;;18.60;99576.00;;;;2070524;28;20222;-54
2022/12/15 02:38:34;;;;;;;10.40;9.40;;;;;18.60;99575.00;;;;2054083;28;20259;-54
2022/12/15 02:39:34;;;;;;;9.90;8.90;;;;;18.60;99578.00;;;;2049200;28;20311;-54
2022/12/15 02:40:35;;;;;;;10.90;9.13;;;;;18.60;99579.00;;;;2062512;28;20694;-54
2022/12/15 02:41:37;;;;;;;10.32;9.32;;;;;18.60;99579.00;;;;2071070;28;20682;-54
2022/12/15 02:42:41;;;;;;;10.00;9.00;;;;;18.60;99586.00;;;;2069620;28;20207;-54
2022/12/15 02:43:41;;;;;;;9.70;8.80;;;;;18.60;99588.00;;;;2062376;28;20222;-54
2022/12/15 02:44:57;;;;;;;11.13;9.93;;;;;18.60;99585.00;;;;2062794;28;20250;-54
2022/12/15 02:46:18;;;;;;;9.82;8.85;;;;;18.60;99581.00;;;;2054681;28;20217;-56
2022/12/15 02:47:33;;;;;;;9.73;8.82;;;;;18.50;99584.00;;;;2052404;28;20226;-54
2022/12/15 02:48:56;;;;;;;9.98;8.98;;;;;18.50;99589.00;;;;2048594;28;20342;-55
2022/12/15 02:50:38;;;;;;;10.10;9.07;;;;;18.60;99580.00;;;;2052616;28;20218;-53
2022/12/15 02:51:54;;;;;;;10.10;9.10;;;;;18.50;99576.00;;;;2062502;28;20690;-54
2022/12/15 02:53:10;;;;;;;9.63;8.63;;;;;18.60;99589.00;;;;2059168;28;20218;-54
2022/12/15 02:54:40;;;;;;;9.43;8.43;;;;;18.50;99579.00;;;;2062233;28;20228;-54
2022/12/15 02:56:05;;;;;;;10.40;9.40;;;;;18.60;99580.00;;;;2053360;28;20227;-54
2022/12/15 02:57:26;;;;;;;10.18;9.18;;;;;18.60;99585.00;;;;2056909;28;20225;-54
2022/12/15 02:58:45;;;;;;;9.27;8.38;;;;;18.50;99576.00;;;;2052018;28;20215;-55
2022/12/15 02:59:54;;;;;;;10.20;9.20;;;;;18.50;99582.00;;;;2051950;28;20223;-54
2022/12/15 03:00:58;;;;;;;10.48;9.48;;;;;18.50;99582.00;;;;2061084;28;20218;-56
2022/12/15 03:02:01;;;;;;;9.90;8.88;;;;;18.50;99584.00;;;;2061871;28;20207;-54
2022/12/15 03:03:01;;;;;;;10.30;9.15;;;;;18.50;99578.00;;;;2061958;28;20278;-54
2022/12/15 03:04:02;;;;;;;10.13;9.13;;;;;18.50;99585.00;;;;2061666;28;20211;-54
2022/12/15 03:05:03;;;;;;;9.20;8.18;;;;;18.50;99591.00;;;;2061898;28;20211;-54
2022/12/15 03:06:03;;;;;;;9.43;8.43;;;;;18.50;99587.00;;;;2062150;28;20565;-54
2022/12/15 03:07:07;;;;;;;10.37;9.27;;;;;18.50;99595.00;;;;2062164;28;20461;-54
2022/12/15 03:08:08;;;;;;;10.30;9.30;;;;;18.50;99590.00;;;;2062581;28;20270;-54
2022/12/15 03:09:08;;;;;;;9.57;8.55;;;;;18.50;99589.00;;;;2070912;28;20907;-54
2022/12/15 03:10:10;;;;;;;10.23;8.37;;;;;18.50;99597.00;;;;2070914;28;20213;-55
2022/12/15 03:11:10;;;;;;;9.80;8.90;;;;;18.50;99592.00;;;;2059562;28;20631;-54
2022/12/15 03:12:10;;;;;;;10.50;9.47;;;;;18.50;99600.00;;;;2060981;28;20253;-55
2022/12/15 03:13:11;;;;;;;9.73;8.73;;;;;18.50;99592.00;;;;2070950;28;20314;-54
2022/12/15 03:14:12;;;;;;;9.80;8.80;;;;;18.50;99598.00;;;;2070784;28;20693;-54
2022/12/15 03:15:12;;;;;;;9.20;8.13;;;;;18.50;99638.00;;;;2071006;28;20245;-54
2022/12/15 03:16:12;;;;;;;9.07;8.27;;;;;18.40;99602.00;;;;2066823;28;20211;-54
2022/12/15 03:17:13;;;;;;;8.80;8.00;;;;;18.40;99605.00;;;;2062706;28;20206;-54
2022/12/15 03:18:13;;;;;;;10.20;9.27;;;;;18.40;99608.00;;;;2062429;28;20621;-54
2022/12/15 03:19:13;;;;;;;9.30;8.40;;;;;18.50;99607.00;;;;2062905;28;20211;-54
2022/12/15 03:20:14;;;;;;;9.00;8.07;;;;;18.40;99603.00;;;;2062793;28;20321;-54
2022/12/15 03:21:15;;;;;;;9.93;8.93;;;;;18.40;99616.00;;;;2054017;28;20222;-54
2022/12/15 03:22:15;;;;;;;9.13;8.20;;;;;18.50;99614.00;;;;2053135;28;20558;-54
2022/12/15 03:23:15;;;;;;;8.70;7.90;;;;;18.40;99612.00;;;;2062610;28;20687;-54
2022/12/15 03:24:16;;;;;;;9.43;8.47;;;;;18.40;99606.00;;;;2066237;28;20736;-54
2022/12/15 03:25:16;;;;;;;9.30;8.30;;;;;18.40;99603.00;;;;2070771;28;20210;-54
2022/12/15 03:26:16;;;;;;;9.20;8.20;;;;;18.40;99612.00;;;;2070904;28;20214;-54
2022/12/15 03:27:17;;;;;;;9.40;8.33;;;;;18.50;99622.00;;;;2070927;28;20275;-55
2022/12/15 03:28:17;;;;;;;9.53;8.53;;;;;18.40;99610.00;;;;2070267;28;20632;-54
2022/12/15 03:29:17;;;;;;;9.70;8.70;;;;;18.40;99615.00;;;;2070779;28;20210;-54
2022/12/15 03:30:18;;;;;;;8.83;8.00;;;;;18.40;99604.00;;;;2071008;28;20217;-54
2022/12/15 03:31:18;;;;;;;9.43;8.43;;;;;18.50;99597.00;;;;2070152;28;20288;-54
2022/12/15 03:32:18;;;;;;;9.10;8.20;;;;;18.50;99604.00;;;;2065998;28;20616;-54
2022/12/15 03:33:19;;;;;;;9.87;8.87;;;;;18.40;99598.00;;;;2062178;28;20225;-54
2022/12/15 03:34:19;;;;;;;10.20;9.20;;;;;18.00;99599.00;;;;2053884;28;20254;-54
2022/12/15 03:35:19;;;;;;;8.97;8.07;;;;;18.40;99593.00;;;;2053911;28;20225;-55
2022/12/15 03:36:21;;;;;;;9.97;9.00;;;;;18.40;99605.00;;;;2054353;28;20223;-54
2022/12/15 03:37:22;;;;;;;8.93;8.02;;;;;18.40;99606.00;;;;2062523;28;20219;-54
2022/12/15 03:38:22;;;;;;;9.00;8.10;;;;;18.40;99603.00;;;;2063471;28;20218;-54
2022/12/15 03:39:22;;;;;;;9.77;8.43;;;;;18.40;99612.00;;;;2066762;28;20233;-54
2022/12/15 03:40:23;;;;;;;10.13;9.13;;;;;18.40;99607.00;;;;2070899;28;20225;-54
2022/12/15 03:41:23;;;;;;;9.00;8.10;;;;;18.40;99607.00;;;;2071093;28;20222;-54
2022/12/15 03:43:42;;;;;;;9.02;8.13;;;;;18.30;99589.00;;;;2070470;28;20218;-55
2022/12/15 03:44:42;;;;;;;9.57;8.67;;;;;18.40;99613.00;;;;2052787;28;20210;-55
2022/12/15 03:45:42;;;;;;;8.97;7.73;;;;;18.30;99604.00;;;;2062349;28;20207;-54
2022/12/15 03:46:43;;;;;;;9.00;8.10;;;;;18.30;99614.00;;;;2070310;28;20219;-54
2022/12/15 03:47:43;;;;;;;9.40;8.37;;;;;18.30;99608.00;;;;2071036;28;20338;-54
2022/12/15 03:48:44;;;;;;;9.40;8.47;;;;;18.40;99615.00;;;;2060418;28;20246;-54
2022/12/15 03:49:44;;;;;;;10.70;8.17;;;;;18.40;99612.00;;;;2062457;28;20273;-54
2022/12/15 03:50:46;;;;;;;9.10;8.00;;;;;18.40;99614.00;;;;2062424;28;20223;-54
2022/12/15 03:51:46;;;;;;;9.02;8.10;;;;;18.30;99617.00;;;;2054086;28;20218;-54
2022/12/15 03:53:04;;;;;;;8.57;7.77;;;;;18.30;99607.00;;;;2053752;28;20211;-54
2022/12/15 03:54:06;;;;;;;8.45;7.65;;;;;18.30;99611.00;;;;2069669;28;20242;-54
2022/12/15 03:55:06;;;;;;;9.32;8.43;;;;;18.30;99611.00;;;;2069181;28;20293;-54
2022/12/15 03:56:07;;;;;;;9.73;8.50;;;;;18.30;99614.00;;;;2055918;28;20695;-54
2022/12/15 03:57:07;;;;;;;9.37;8.47;;;;;18.30;99621.00;;;;2054383;28;20215;-55
2022/12/15 03:58:07;;;;;;;9.60;8.60;;;;;18.30;99620.00;;;;2062622;28;20231;-54
2022/12/15 03:59:08;;;;;;;9.87;8.93;;;;;18.30;99621.00;;;;2062211;28;20249;-54
2022/12/15 04:00:10;;;;;;;9.30;8.40;;;;;18.30;99614.00;;;;2062709;28;20219;-54
2022/12/15 04:01:19;;;;;;;9.27;8.48;;;;;18.30;99615.00;;;;2054233;28;20285;-54
2022/12/15 04:02:19;;;;;;;8.90;8.00;;;;;18.40;99619.00;;;;2060143;28;20211;-54
2022/12/15 04:03:20;;;;;;;9.17;8.27;;;;;18.30;99607.00;;;;2067740;28;20207;-55
2022/12/15 04:04:20;;;;;;;8.93;8.10;;;;;18.30;99618.00;;;;2054028;28;20212;-54
2022/12/15 04:05:24;;;;;;;8.87;8.00;;;;;18.30;99621.00;;;;2053396;28;20230;-54
2022/12/15 04:06:26;;;;;;;10.82;8.68;;;;;18.30;99623.00;;;;2061949;28;20305;-55
2022/12/15 04:07:27;;;;;;;8.60;7.80;;;;;18.30;99624.00;;;;2053112;28;20208;-54
2022/12/15 04:08:27;;;;;;;8.20;7.50;;;;;18.30;99631.00;;;;2054204;28;20212;-55
2022/12/15 04:09:27;;;;;;;9.13;8.13;;;;;18.30;99623.00;;;;2052806;28;20221;-54
2022/12/15 04:10:31;;;;;;;8.80;7.80;;;;;18.30;99626.00;;;;2052907;28;20798;-55
2022/12/15 04:11:31;;;;;;;8.77;7.85;;;;;18.30;99624.00;;;;2065574;28;20573;-55
2022/12/15 04:12:32;;;;;;;8.93;8.03;;;;;18.30;99616.00;;;;2059456;28;20215;-55
2022/12/15 04:13:32;;;;;;;9.17;8.27;;;;;18.30;99623.00;;;;2060305;28;20595;-54
2022/12/15 04:14:32;;;;;;;9.00;8.10;;;;;18.30;99621.00;;;;2067216;28;20226;-55
2022/12/15 04:15:33;;;;;;;9.43;8.43;;;;;18.30;99612.00;;;;2063577;28;20223;-54
2022/12/15 04:16:33;;;;;;;9.50;8.40;;;;;18.30;99614.00;;;;2062821;28;20276;-55
2022/12/15 04:17:34;;;;;;;9.37;8.47;;;;;18.30;99611.00;;;;2064235;28;20491;-54
2022/12/15 04:18:35;;;;;;;9.30;8.40;;;;;18.30;99606.00;;;;2065621;28;20218;-54
2022/12/15 04:20:54;;;;;;;8.90;7.85;;;;;18.30;99598.00;;;;2068696;28;20221;-55
2022/12/15 04:21:54;;;;;;;8.80;8.00;;;;;18.30;99599.00;;;;2069726;28;20217;-54
2022/12/15 04:22:55;;;;;;;8.60;7.80;;;;;18.20;99597.00;;;;2070703;28;20210;-54
2022/12/15 05:31:51;;;;;;;8.65;7.65;;;;;18.20;99646.00;;;;2071691;28;20269;-53
2022/12/15 05:32:51;;;;;;;8.48;7.60;;;;;18.20;99659.00;;;;2070206;28;20293;-54
2022/12/15 05:33:52;;;;;;;8.70;7.33;;;;;18.20;99647.00;;;;2071668;28;20217;-54
2022/12/15 05:34:53;;;;;;;9.10;8.20;;;;;18.20;99647.00;;;;2063166;28;20214;-54
2022/12/15 05:35:57;;;;;;;8.50;7.70;;;;;18.20;99651.00;;;;2062749;28;20210;-54
2022/12/15 05:36:58;;;;;;;8.07;7.28;;;;;18.20;99651.00;;;;2071877;28;20690;-54
2022/12/15 05:37:59;;;;;;;7.65;6.28;;;;;18.10;99648.00;;;;2062824;28;20246;-54
2022/12/15 05:38:59;;;;;;;9.13;7.37;;;;;18.10;99654.00;;;;2054419;28;20222;-54
2022/12/15 05:39:59;;;;;;;9.27;8.33;;;;;18.20;99654.00;;;;2063238;28;20226;-54
2022/12/15 05:41:00;;;;;;;9.50;8.53;;;;;18.20;99655.00;;;;2055143;28;20242;-54
2022/12/15 05:42:00;;;;;;;9.80;8.80;;;;;18.20;99650.00;;;;2053218;28;20261;-54
2022/12/15 05:43:00;;;;;;;11.13;8.80;;;;;18.20;99652.00;;;;2063591;28;20280;-54
2022/12/15 05:44:01;;;;;;;11.47;9.63;;;;;18.20;99660.00;;;;2063349;28;20210;-54
2022/12/15 05:45:01;;;;;;;11.90;10.03;;;;;18.20;99653.00;;;;2054187;28;20215;-54
2022/12/15 05:46:05;;;;;;;13.03;11.23;;;;;18.10;99651.00;;;;2055211;28;20219;-54
2022/12/15 05:47:08;;;;;;;13.20;11.80;;;;;18.10;99655.00;;;;2064650;28;20222;-54
2022/12/15 05:48:08;;;;;;;14.63;11.70;;;;;18.20;99658.00;;;;2069876;28;20264;-54
2022/12/15 05:49:16;;;;;;;12.37;11.07;;;;;18.20;99658.00;;;;2055139;28;20239;-54
2022/12/15 05:50:16;;;;;;;13.95;12.05;;;;;18.20;99656.00;;;;2058203;28;20250;-55
2022/12/15 05:51:16;;;;;;;15.47;12.63;;;;;18.20;99664.00;;;;2061554;28;20662;-54
2022/12/15 05:52:17;;;;;;;16.30;13.30;;;;;18.10;99656.00;;;;2068393;28;20230;-54
2022/12/15 05:53:18;;;;;;;15.20;12.27;;;;;18.10;99661.00;;;;2063186;28;20218;-54
2022/12/15 05:54:20;;;;;;;15.25;12.52;;;;;18.10;99655.00;;;;2066585;28;20583;-54
2022/12/15 05:55:20;;;;;;;14.32;12.80;;;;;18.10;99664.00;;;;2056254;28;20218;-54
2022/12/15 05:56:21;;;;;;;13.27;11.67;;;;;18.10;99659.00;;;;2054951;28;20231;-54
2022/12/15 05:57:21;;;;;;;12.70;11.30;;;;;18.20;99665.00;;;;2054813;28;20714;-54
2022/12/15 05:58:21;;;;;;;15.00;11.80;;;;;18.10;99666.00;;;;2051531;28;20258;-54
2022/12/15 05:59:23;;;;;;;14.03;12.50;;;;;18.10;99679.00;;;;2070674;28;20224;-54
2022/12/15 06:00:23;;;;;;;14.43;11.95;;;;;18.10;99689.00;;;;2059753;28;20459;-54
2022/12/15 06:01:24;;;;;;;13.03;11.63;;;;;18.10;99674.00;;;;2060528;28;20311;-54
2022/12/15 06:02:25;;;;;;;16.30;13.80;;;;;18.10;99688.00;;;;2066168;28;20214;-54
2022/12/15 06:03:26;;;;;;;16.67;14.88;;;;;18.20;99685.00;;;;2063118;28;20225;-54
2022/12/15 06:04:26;;;;;;;16.47;14.67;;;;;18.20;99684.00;;;;2054843;28;20609;-54
2022/12/15 06:05:26;;;;;;;16.30;14.00;;;;;18.20;99682.00;;;;2053530;28;20610;-54
2022/12/15 06:06:27;;;;;;;19.77;14.83;;;;;18.20;99682.00;;;;2070535;28;20717;-54
2022/12/15 06:07:28;;;;;;;17.83;13.87;;;;;18.30;99687.00;;;;2071061;28;20745;-54
2022/12/15 06:08:29;;;;;;;14.88;12.85;;;;;18.30;99689.00;;;;2065372;28;20558;-54
2022/12/15 06:09:29;;;;;;;15.10;12.18;;;;;18.40;99685.00;;;;2061524;28;20273;-54
2022/12/15 06:10:29;;;;;;;17.03;13.73;;;;;18.40;99689.00;;;;2062111;28;20257;-54
2022/12/15 06:11:30;;;;;;;14.30;12.27;;;;;18.50;99681.00;;;;2063648;28;20215;-54
2022/12/15 06:12:30;;;;;;;13.50;11.37;;;;;18.50;99694.00;;;;2063210;28;20226;-54
2022/12/15 06:13:33;;;;;;;13.30;10.53;;;;;18.60;99697.00;;;;2063204;28;20219;-54
2022/12/15 06:14:35;;;;;;;12.35;10.05;;;;;18.70;99700.00;;;;2059339;28;20302;-54
2022/12/15 06:15:35;;;;;;;11.23;9.43;;;;;18.70;99692.00;;;;2063045;28;20223;-54
2022/12/15 06:16:35;;;;;;;10.57;9.50;;;;;18.80;99687.00;;;;2071645;28;20231;-54
2022/12/15 06:17:36;;;;;;;14.00;12.43;;;;;18.80;99688.00;;;;2071739;28;20258;-54
2022/12/15 06:18:38;;;;;;;12.20;9.80;;;;;18.80;99684.00;;;;2063630;28;20311;-54
2022/12/15 06:19:39;;;;;;;13.63;12.07;;;;;18.80;99676.00;;;;2048460;28;20219;-54
2022/12/15 06:20:39;;;;;;;12.67;11.10;;;;;18.80;99676.00;;;;2054190;28;20236;-54
2022/12/15 06:21:40;;;;;;;15.27;12.00;;;;;18.80;99684.00;;;;2063178;28;20753;-55
2022/12/15 06:22:41;;;;;;;12.77;11.10;;;;;18.90;99613.00;;;;2062884;28;20219;-54
2022/12/15 06:23:41;;;;;;;15.30;11.83;;;;;18.90;99687.00;;;;2047792;28;20219;-54
2022/12/15 06:24:41;;;;;;;12.80;11.10;;;;;18.90;99689.00;;;;2054468;28;20467;-55
2022/12/15 06:25:42;;;;;;;12.97;11.67;;;;;18.90;99678.00;;;;2054590;28;20220;-55
2022/12/15 06:26:42;;;;;;;14.83;12.97;;;;;18.90;99685.00;;;;2066928;28;20237;-54
2022/12/15 06:27:43;;;;;;;13.77;12.37;;;;;19.00;99689.00;;;;2052072;28;20219;-54
2022/12/15 06:28:43;;;;;;;16.03;13.33;;;;;19.00;99698.00;;;;2054149;28;20318;-54
2022/12/15 06:29:44;;;;;;;17.23;14.20;;;;;19.00;99696.00;;;;2062429;28;20242;-54
2022/12/15 06:30:44;;;;;;;14.60;12.87;;;;;19.00;99691.00;;;;2062796;28;20231;-54
2022/12/15 06:31:45;;;;;;;17.53;14.40;;;;;19.00;99696.00;;;;2057233;28;21385;-54
2022/12/15 06:32:46;;;;;;;18.42;14.27;;;;;19.10;99701.00;;;;2056009;28;20212;-54
2022/12/15 06:33:46;;;;;;;17.73;13.60;;;;;19.10;99697.00;;;;2062741;28;20285;-55
2022/12/15 06:34:47;;;;;;;17.47;15.57;;;;;19.10;99692.00;;;;2055308;28;20223;-54
2022/12/15 06:35:48;;;;;;;16.83;14.80;;;;;19.10;99697.00;;;;2062625;28;20309;-54
2022/12/15 06:36:49;;;;;;;17.93;15.30;;;;;19.10;99698.00;;;;2054222;28;20807;-55
2022/12/15 06:37:49;;;;;;;17.20;14.97;;;;;19.10;99694.00;;;;2046392;28;20235;-55
2022/12/15 06:38:49;;;;;;;18.90;15.07;;;;;19.10;99697.00;;;;2053931;28;20493;-54
2022/12/15 06:39:50;;;;;;;18.90;16.37;;;;;19.10;99705.00;;;;2060072;28;20250;-54
2022/12/15 06:40:59;;;;;;;18.87;15.87;;;;;19.20;99700.00;;;;2061615;28;20229;-54
2022/12/15 06:41:59;;;;;;;17.50;15.60;;;;;19.20;99701.00;;;;2053644;28;20308;-54
2022/12/15 06:43:00;;;;;;;19.90;16.93;;;;;19.20;99693.00;;;;2049284;28;20692;-54
2022/12/15 06:44:01;;;;;;;21.57;17.77;;;;;19.20;99692.00;;;;2055184;28;20694;-54
2022/12/15 06:45:02;;;;;;;21.23;16.63;;;;;19.20;99677.00;;;;2052948;28;20235;-54
2022/12/15 06:46:03;;;;;;;20.10;17.45;;;;;19.30;99691.00;;;;2052412;28;20219;-54
2022/12/15 06:47:03;;;;;;;20.40;17.80;;;;;19.20;99690.00;;;;2062737;28;20825;-54
2022/12/15 06:48:05;;;;;;;19.40;16.90;;;;;19.30;99663.00;;;;2062184;28;20286;-54
2022/12/15 06:49:07;;;;;;;21.88;17.95;;;;;19.30;99690.00;;;;2054547;28;20687;-54
2022/12/15 06:50:08;;;;;;;20.08;17.63;;;;;19.30;99688.00;;;;2055004;28;20290;-54
2022/12/15 06:51:09;;;;;;;22.07;18.50;;;;;19.30;99691.00;;;;2063793;28;20612;-54
2022/12/15 06:52:11;;;;;;;23.30;19.42;;;;;19.30;99693.00;;;;2054744;28;20470;-54
2022/12/15 06:53:12;;;;;;;23.67;21.15;;;;;19.30;99704.00;;;;2053518;28;20305;-54
2022/12/15 06:54:14;;;;;;;26.60;22.20;;;;;19.30;99698.00;;;;2061931;28;20230;-54
2022/12/15 06:55:14;;;;;;;27.02;21.70;;;;;19.30;99688.00;;;;2062513;28;20721;-54
2022/12/15 06:56:31;;;;;;;23.50;20.07;;;;;19.40;99691.00;;;;2061727;28;20207;-54
2022/12/15 06:57:31;;;;;;;25.60;22.40;;;;;19.30;99698.00;;;;2043675;28;20675;-55
2022/12/15 06:58:32;;;;;;;25.53;21.93;;;;;19.40;99693.00;;;;2070386;28;20222;-55
2022/12/15 06:59:34;;;;;;;25.37;21.43;;;;;19.40;99690.00;;;;2070804;28;20252;-55
2022/12/15 07:00:35;;;;;;;26.05;22.90;;;;;19.40;99694.00;;;;2060918;28;20462;-54
2022/12/15 07:01:37;;;;;;;24.48;21.90;;;;;19.40;99675.00;;;;2061790;28;20762;-54
2022/12/15 07:02:38;;;;;;;27.83;24.70;;;;;19.40;99697.00;;;;2037826;28;20641;-54
2022/12/15 07:03:38;;;;;;;28.93;22.33;;;;;19.40;99705.00;;;;2067795;23;20266;-50
2022/12/15 07:04:38;;;;;;;27.10;23.93;;;;;19.30;99703.00;;;;2065150;28;20473;-52
2022/12/15 07:05:39;;;;;;;25.97;23.17;;;;;19.50;99696.00;;;;2074649;28;20235;-50
2022/12/15 07:06:39;;;;;;;30.00;25.57;;;;;19.50;99706.00;;;;2066817;28;20225;-52
2022/12/15 07:07:40;;;;;;;28.33;25.13;;;;;19.50;99712.00;;;;2070506;28;20229;-53
2022/12/15 07:08:40;;;;;;;28.43;25.13;;;;;19.50;99714.00;;;;2070479;28;20304;-52
2022/12/15 07:09:41;;;;;;;31.10;25.17;;;;;19.50;99716.00;;;;2070542;28;20674;-53
2022/12/15 07:10:42;;;;;;;28.70;24.47;;;;;19.50;99715.00;;;;2070975;28;20280;-50
2022/12/15 07:11:44;;;;;;;32.28;25.58;;;;;19.50;99711.00;;;;2070883;28;20214;-52
2022/12/15 07:12:44;;;;;;;29.02;25.75;;;;;19.50;99715.00;;;;2071044;28;20214;-53
2022/12/15 07:13:47;;;;;;;31.67;28.10;;;;;19.50;99711.00;;;;2071361;28;20214;-51
2022/12/15 07:14:48;;;;;;;33.95;27.83;;;;;19.50;99712.00;;;;2070597;28;20214;-52
2022/12/15 07:15:48;;;;;;;30.03;24.17;;;;;19.50;99713.00;;;;2070516;28;20210;-53
2022/12/15 07:16:49;;;;;;;33.30;26.90;;;;;19.50;99713.00;;;;2071508;28;20206;-54
2022/12/15 07:17:50;;;;;;;33.60;28.30;;;;;19.60;99708.00;;;;2071473;28;20972;-53
2022/12/15 07:18:50;;;;;;;31.83;27.67;;;;;19.50;99702.00;;;;2070258;28;20613;-52
2022/12/15 07:19:50;;;;;;;34.10;28.10;;;;;19.50;99698.00;;;;2070771;28;20222;-53
2022/12/15 07:20:51;;;;;;;34.90;29.53;;;;;19.60;99697.00;;;;2070672;28;20279;-52
2022/12/15 07:21:51;;;;;;;31.40;27.30;;;;;19.60;99700.00;;;;2069980;28;20213;-53
2022/12/15 07:22:52;;;;;;;31.40;27.97;;;;;19.60;99692.00;;;;2070330;28;20238;-50
2022/12/15 07:23:52;;;;;;;32.60;28.00;;;;;19.60;99696.00;;;;2071328;28;20217;-53
2022/12/15 07:24:52;;;;;;;36.03;30.43;;;;;19.60;99695.00;;;;2071222;28;20272;-53
2022/12/15 07:25:53;;;;;;;33.73;29.53;;;;;19.60;99702.00;;;;2070398;28;20210;-53
2022/12/15 07:26:53;;;;;;;33.57;29.67;;;;;19.60;99707.00;;;;2070473;28;20207;-54
2022/12/15 07:27:54;;;;;;;35.83;31.07;;;;;19.60;99693.00;;;;2070741;28;20206;-53
2022/12/15 07:28:54;;;;;;;35.17;29.53;;;;;19.60;99708.00;;;;2062578;28;20211;-50
2022/12/15 07:29:55;;;;;;;33.73;30.13;;;;;19.60;99704.00;;;;2062664;28;20217;-52
2022/12/15 07:31:03;;;;;;;34.57;30.20;;;;;19.60;99707.00;;;;2071379;28;20446;-53
2022/12/15 07:32:03;;;;;;;36.92;31.98;;;;;19.70;99706.00;;;;2070514;28;20271;-53
2022/12/15 07:33:04;;;;;;;36.40;30.70;;;;;19.70;99713.00;;;;2070148;28;20315;-53
2022/12/15 07:34:04;;;;;;;39.57;32.00;;;;;19.70;99731.00;;;;2071359;28;20214;-53